createdAt,value
2019-05-02T00:01:28.278Z,100022.77
2019-05-02T00:03:57.817Z,100017.95
2019-05-02T00:06:27.148Z,100030.72
2019-05-02T00:08:56.244Z,100029.23
2019-05-02T00:11:25.519Z,100018.16
2019-05-02T00:13:54.405Z,100023.32
2019-05-02T00:16:23.325Z,100015.17
2019-05-02T00:18:52.614Z,100015.17
2019-05-02T00:21:21.489Z,100021.97
2019-05-02T00:23:50.599Z,100017.80
2019-05-02T00:26:19.498Z,100018.80
2019-05-02T00:28:49.934Z,100018.51
2019-05-02T00:31:20.669Z,100025.11
2019-05-02T00:33:49.712Z,100020.32
2019-05-02T00:36:18.591Z,100013.58
2019-05-02T00:38:47.574Z,100014.39
2019-05-02T00:41:16.562Z,100017.53
2019-05-02T00:43:45.548Z,100025.19
2019-05-02T00:46:14.386Z,100011.42
2019-05-02T00:49:02.064Z,100010.73
2019-05-02T00:51:31.004Z,100014.16
2019-05-02T00:53:59.945Z,100011.34
2019-05-02T00:56:28.839Z,100008.36
2019-05-02T00:59:02.463Z,100007.30
2019-05-02T01:01:44.652Z,99992.49
2019-05-02T01:04:27.529Z,100002.45
2019-05-02T01:06:54.097Z,100002.53
2019-05-02T01:09:23.088Z,99997.03
2019-05-02T01:11:51.876Z,100003.67
2019-05-02T01:14:20.794Z,100000.63
2019-05-02T01:16:54.327Z,99993.52
2019-05-02T01:19:20.400Z,99998.55
2019-05-02T01:21:49.350Z,99993.44
2019-05-02T01:24:18.423Z,99991.74
2019-05-02T01:27:06.511Z,99993.61
2019-05-02T01:29:40.414Z,99991.23
2019-05-02T01:32:19.224Z,99988.97
2019-05-02T01:34:54.307Z,99997.64
2019-05-02T01:37:41.162Z,99987.10
2019-05-02T01:40:12.947Z,99985.98
2019-05-02T01:42:44.427Z,99990.69
2019-05-02T01:45:12.571Z,99987.64
2019-05-02T01:47:41.492Z,99993.61
2019-05-02T01:50:10.746Z,99989.94
2019-05-02T01:52:39.643Z,99987.55
2019-05-02T01:55:08.644Z,99986.14
2019-05-02T01:57:39.957Z,99982.56
2019-05-02T02:00:11.438Z,99974.92
2019-05-02T02:02:40.442Z,99981.42
2019-05-02T02:05:09.535Z,99991.36
2019-05-02T02:07:38.502Z,99984.86
2019-05-02T02:10:08.105Z,99987.33
2019-05-02T02:12:41.266Z,99981.48
2019-05-02T02:15:07.867Z,99978.34
2019-05-02T02:17:36.759Z,99962.23
2019-05-02T02:20:09.747Z,99967.52
2019-05-02T02:22:54.264Z,99967.16
2019-05-02T02:25:36.349Z,99968.04
2019-05-02T02:28:03.818Z,99962.77
2019-05-02T02:30:32.837Z,99970.89
2019-05-02T02:33:07.758Z,99962.05
2019-05-02T02:35:32.470Z,99967.42
2019-05-02T02:38:01.464Z,99964.73
2019-05-02T02:40:33.767Z,99968.67
2019-05-02T02:43:13.067Z,99962.05
2019-05-02T02:46:01.491Z,99969.48
2019-05-02T02:48:33.705Z,99969.48
2019-05-02T02:51:02.118Z,99965.25
2019-05-02T02:53:31.040Z,99962.34
2019-05-02T02:56:03.974Z,99966.57
2019-05-02T02:58:44.301Z,99968.67
2019-05-02T03:01:03.486Z,99965.41
2019-05-02T03:03:35.175Z,99961.48
2019-05-02T03:06:08.049Z,99962.34
2019-05-02T03:08:44.647Z,99963.63
2019-05-02T03:11:09.062Z,99955.42
2019-05-02T03:13:52.748Z,99954.56
2019-05-02T03:16:18.387Z,99953.98
2019-05-02T03:18:47.357Z,99956.59
2019-05-02T03:21:20.416Z,99962.50
2019-05-02T03:23:47.145Z,99956.42
2019-05-02T03:26:17.356Z,99959.70
2019-05-02T03:28:57.621Z,99959.03
2019-05-02T03:31:29.633Z,99958.50
2019-05-02T03:34:00.206Z,99957.78
2019-05-02T03:36:29.669Z,99951.32
2019-05-02T03:38:49.467Z,99959.39
2019-05-02T03:41:20.522Z,99960.70
2019-05-02T03:43:50.424Z,99957.02
2019-05-02T03:46:20.519Z,99960.53
2019-05-02T03:48:49.953Z,99946.94
2019-05-02T03:51:21.322Z,99952.92
2019-05-02T03:53:49.638Z,99963.03
2019-05-02T03:56:18.728Z,99959.00
2019-05-02T03:58:55.447Z,99962.98
2019-05-02T04:01:19.116Z,99958.38
2019-05-02T04:03:48.377Z,99958.77
2019-05-02T04:06:21.264Z,99965.66
2019-05-02T04:08:59.300Z,99957.53
2019-05-02T04:11:24.811Z,99962.39
2019-05-02T04:13:55.705Z,99961.75
2019-05-02T04:16:29.056Z,99959.37
2019-05-02T04:19:06.498Z,99962.05
2019-05-02T04:21:38.594Z,99966.57
2019-05-02T04:24:13.412Z,99966.98
2019-05-02T04:26:39.276Z,99961.80
2019-05-02T04:29:08.201Z,99959.89
2019-05-02T04:31:37.118Z,99959.06
2019-05-02T04:34:14.033Z,99964.67
2019-05-02T04:36:36.755Z,99962.01
2019-05-02T04:39:12.627Z,99960.39
2019-05-02T04:41:39.277Z,99964.52
2019-05-02T04:44:09.059Z,99969.87
2019-05-02T04:46:38.891Z,99963.77
2019-05-02T04:49:09.192Z,99963.89
2019-05-02T04:51:38.437Z,99966.66
2019-05-02T04:54:09.194Z,99966.86
2019-05-02T04:56:39.749Z,99965.69
2019-05-02T04:59:17.623Z,99970.30
2019-05-02T05:01:49.168Z,99975.14
2019-05-02T05:04:10.063Z,99969.06
2019-05-02T05:06:40.861Z,99966.34
2019-05-02T05:09:13.494Z,99960.71
2019-05-02T05:11:40.255Z,99960.71
2019-05-02T05:14:09.965Z,99969.25
2019-05-02T05:16:40.066Z,99969.20
2019-05-02T05:19:09.040Z,99968.20
2019-05-02T05:21:38.081Z,99972.11
2019-05-02T05:24:27.876Z,99971.33
2019-05-02T05:27:00.147Z,99975.32
2019-05-02T05:29:29.232Z,99980.59
2019-05-02T05:32:05.451Z,99980.41
2019-05-02T05:34:32.657Z,99980.64
2019-05-02T05:37:03.761Z,99978.91
2019-05-02T05:39:30.228Z,99985.77
2019-05-02T05:41:59.102Z,99981.20
2019-05-02T05:44:32.481Z,99990.40
2019-05-02T05:46:58.630Z,99988.14
2019-05-02T05:49:28.323Z,99989.03
2019-05-02T05:52:02.259Z,99992.56
2019-05-02T05:54:28.470Z,99988.53
2019-05-02T05:56:57.695Z,99994.45
2019-05-02T05:59:28.029Z,99989.61
2019-05-02T06:01:58.088Z,99989.61
2019-05-02T06:04:32.594Z,99991.42
2019-05-02T06:06:59.471Z,99997.72
2019-05-02T06:09:31.018Z,99987.72
2019-05-02T06:11:59.260Z,99995.53
2019-05-02T06:14:28.351Z,100001.62
2019-05-02T06:16:57.339Z,100006.25
2019-05-02T06:19:26.281Z,100008.35
2019-05-02T06:21:55.265Z,100012.45
2019-05-02T06:24:24.204Z,100007.14
2019-05-02T06:26:53.070Z,100003.26
2019-05-02T06:29:21.980Z,100004.69
2019-05-02T06:31:50.994Z,100009.31
2019-05-02T06:34:19.928Z,99999.28
2019-05-02T06:36:48.909Z,100002.24
2019-05-02T06:39:17.774Z,100003.52
2019-05-02T06:41:46.690Z,99999.86
2019-05-02T06:44:18.643Z,100005.06
2019-05-02T06:46:46.388Z,100008.02
2019-05-02T06:49:15.303Z,100014.20
2019-05-02T06:51:44.439Z,100011.73
2019-05-02T06:54:13.466Z,100011.52
2019-05-02T06:56:43.142Z,100012.96
2019-05-02T06:59:17.929Z,100014.59
2019-05-02T07:01:43.676Z,100008.56
2019-05-02T07:04:12.530Z,100015.74
2019-05-02T07:06:56.328Z,100002.87
2019-05-02T07:09:12.399Z,100005.85
2019-05-02T07:11:41.502Z,100005.30
2019-05-02T07:14:13.405Z,100003.55
2019-05-02T07:17:06.039Z,99998.31
2019-05-02T07:19:40.951Z,99993.91
2019-05-02T07:22:09.961Z,100003.15
2019-05-02T07:24:39.141Z,100002.07
2019-05-02T07:27:08.193Z,99995.25
2019-05-02T07:29:37.075Z,100003.66
2019-05-02T07:32:06.190Z,100003.51
2019-05-02T07:34:35.157Z,100001.67
2019-05-02T07:37:08.428Z,99999.07
2019-05-02T07:39:36.061Z,99991.78
2019-05-02T07:42:07.756Z,99994.52
2019-05-02T07:44:36.325Z,99992.97
2019-05-02T07:47:05.285Z,99994.52
2019-05-02T07:49:34.424Z,99995.92
2019-05-02T07:52:03.574Z,99994.61
2019-05-02T07:54:32.431Z,99989.07
2019-05-02T07:57:03.495Z,99988.47
2019-05-02T07:59:32.746Z,99988.19
2019-05-02T08:02:01.755Z,99987.80
2019-05-02T08:04:30.675Z,99992.63
2019-05-02T08:06:59.870Z,99997.62
2019-05-02T08:09:29.377Z,99994.80
2019-05-02T08:11:58.459Z,99986.73
2019-05-02T08:14:29.286Z,99994.15
2019-05-02T08:17:05.477Z,99993.84
2019-05-02T08:19:28.912Z,99988.25
2019-05-02T08:21:57.944Z,99992.06
2019-05-02T08:24:26.844Z,99978.20
2019-05-02T08:27:13.178Z,99992.06
2019-05-02T08:29:42.425Z,99991.39
2019-05-02T08:32:11.375Z,99992.06
2019-05-02T08:34:40.213Z,99991.67
2019-05-02T08:37:09.200Z,99994.23
2019-05-02T08:39:38.007Z,99985.03
2019-05-02T08:42:07.672Z,99984.77
2019-05-02T08:44:49.958Z,99988.27
2019-05-02T08:47:18.371Z,99978.28
2019-05-02T08:49:38.341Z,99986.80
2019-05-02T08:52:07.331Z,99986.31
2019-05-02T08:54:36.232Z,99978.06
2019-05-02T08:57:05.272Z,99972.62
2019-05-02T08:59:34.172Z,99972.62
2019-05-02T09:02:03.188Z,99971.81
2019-05-02T09:04:32.052Z,99974.50
2019-05-02T09:07:01.309Z,99971.97
2019-05-02T09:09:30.170Z,99973.31
2019-05-02T09:12:09.762Z,99965.50
2019-05-02T09:14:32.062Z,99964.37
2019-05-02T09:17:08.467Z,99926.65
2019-05-02T09:19:34.273Z,99953.71
2019-05-02T09:22:02.547Z,99943.84
2019-05-02T09:24:32.627Z,99941.05
2019-05-02T09:27:02.521Z,99939.22
2019-05-02T09:29:32.710Z,99945.38
2019-05-02T09:32:02.153Z,99947.99
2019-05-02T09:34:31.888Z,99935.17
2019-05-02T09:37:02.694Z,99941.02
2019-05-02T09:39:36.276Z,99939.59
2019-05-02T09:42:02.326Z,99931.80
2019-05-02T09:44:33.314Z,99936.29
2019-05-02T09:47:02.506Z,99929.78
2019-05-02T09:49:32.488Z,99915.61
2019-05-02T09:52:03.373Z,99916.84
2019-05-02T09:54:32.390Z,99913.23
2019-05-02T09:57:02.800Z,99915.45
2019-05-02T09:59:33.300Z,99911.37
2019-05-02T10:02:04.170Z,99905.92
2019-05-02T10:04:33.132Z,99898.53
2019-05-02T10:07:02.605Z,99896.15
2019-05-02T10:09:32.407Z,99893.27
2019-05-02T10:12:02.145Z,99887.23
2019-05-02T10:14:33.096Z,99883.00
2019-05-02T10:17:06.928Z,99884.33
2019-05-02T10:19:33.055Z,99878.21
2019-05-02T10:22:02.108Z,99882.25
2019-05-02T10:24:32.226Z,99884.41
2019-05-02T10:27:04.214Z,99876.31
2019-05-02T10:29:32.928Z,99872.41
2019-05-02T10:32:02.484Z,99879.14
2019-05-02T10:34:32.948Z,99866.55
2019-05-02T10:37:03.726Z,99870.45
2019-05-02T10:39:34.029Z,99863.92
2019-05-02T10:42:03.550Z,99859.40
2019-05-02T10:44:36.329Z,99867.81
2019-05-02T10:47:03.331Z,99858.70
2019-05-02T10:49:44.501Z,99858.31
2019-05-02T10:52:14.894Z,99841.70
2019-05-02T10:54:43.903Z,99843.65
2019-05-02T10:57:13.172Z,99835.75
2019-05-02T10:59:42.256Z,99834.42
2019-05-02T11:02:24.883Z,99834.44
2019-05-02T11:04:56.711Z,99825.25
2019-05-02T11:07:26.517Z,99824.64
2019-05-02T11:09:57.392Z,99831.35
2019-05-02T11:12:41.897Z,99816.22
2019-05-02T11:15:38.627Z,99806.02
2019-05-02T11:18:07.793Z,99800.28
2019-05-02T11:20:36.749Z,99803.58
2019-05-02T11:23:06.180Z,99794.61
2019-05-02T11:25:35.036Z,99784.52
2019-05-02T11:28:07.125Z,99791.32
2019-05-02T11:30:36.656Z,99792.96
2019-05-02T11:33:05.897Z,99791.88
2019-05-02T11:35:35.571Z,99787.83
2019-05-02T11:38:04.806Z,99793.23
2019-05-02T11:40:33.828Z,99793.23
2019-05-02T11:43:06.687Z,99789.42
2019-05-02T11:45:33.442Z,99787.51
2019-05-02T11:48:09.348Z,99781.81
2019-05-02T11:50:35.478Z,99777.75
2019-05-02T11:53:09.133Z,99773.70
2019-05-02T11:55:34.543Z,99753.86
2019-05-02T11:58:08.310Z,99790.53
2019-05-02T12:00:34.171Z,99782.93
2019-05-02T12:03:14.762Z,99777.16
2019-05-02T12:05:44.144Z,99788.53
2019-05-02T12:08:13.140Z,99785.28
2019-05-02T12:10:42.408Z,99776.27
2019-05-02T12:13:15.797Z,99776.15
2019-05-02T12:15:44.167Z,99776.60
2019-05-02T12:18:12.691Z,99772.47
2019-05-02T12:20:42.497Z,99765.16
2019-05-02T12:23:12.987Z,99765.16
2019-05-02T12:25:42.468Z,99768.12
2019-05-02T12:28:12.024Z,99753.12
2019-05-02T12:30:41.908Z,99735.33
2019-05-02T12:33:12.294Z,99759.04
2019-05-02T12:35:43.276Z,99751.66
2019-05-02T12:38:12.424Z,99745.73
2019-05-02T12:40:42.238Z,99754.03
2019-05-02T12:43:12.138Z,99754.70
2019-05-02T12:45:42.154Z,99748.16
2019-05-02T12:48:12.936Z,99754.67
2019-05-02T12:50:42.028Z,99755.10
2019-05-02T12:53:12.590Z,99746.81
2019-05-02T12:55:42.295Z,99739.27
2019-05-02T12:58:12.546Z,99743.58
2019-05-02T13:00:43.070Z,99738.28
2019-05-02T13:03:34.242Z,99733.73
2019-05-02T13:06:03.439Z,99742.16
2019-05-02T13:08:34.129Z,99731.38
2019-05-02T13:11:22.175Z,99719.76
2019-05-02T13:13:53.230Z,99722.47
2019-05-02T13:16:22.637Z,99720.70
2019-05-02T13:18:52.014Z,99714.41
2019-05-02T13:21:38.722Z,99716.39
2019-05-02T13:24:16.339Z,99709.39
2019-05-02T13:26:43.171Z,99706.66
2019-05-02T13:29:12.095Z,99702.38
2019-05-02T13:32:01.673Z,99695.00
2019-05-02T13:34:41.262Z,99696.31
2019-05-02T13:37:12.192Z,99696.31
2019-05-02T13:39:44.744Z,99689.55
2019-05-02T13:42:14.198Z,99688.55
2019-05-02T13:44:52.571Z,99681.27
2019-05-02T13:47:22.573Z,99685.20
2019-05-02T13:49:56.355Z,99679.02
2019-05-02T13:52:22.655Z,99669.06
2019-05-02T13:54:52.307Z,99666.91
2019-05-02T13:57:21.899Z,99660.08
2019-05-02T13:59:52.580Z,99661.69
2019-05-02T14:02:37.859Z,99657.45
2019-05-02T14:05:08.627Z,99662.11
2019-05-02T14:07:38.081Z,99655.30
2019-05-02T14:10:39.342Z,99656.11
2019-05-02T14:13:06.400Z,99644.62
2019-05-02T14:15:38.226Z,99642.09
2019-05-02T14:18:07.218Z,99633.78
2019-05-02T14:20:37.506Z,99628.84
2019-05-02T14:23:07.012Z,99630.72
2019-05-02T14:25:35.908Z,99621.16
2019-05-02T14:28:04.883Z,99616.12
2019-05-02T14:30:39.321Z,99611.02
2019-05-02T14:33:11.761Z,99600.33
2019-05-02T14:35:42.607Z,99612.59
2019-05-02T14:38:13.263Z,99604.50
2019-05-02T14:41:09.759Z,99607.16
2019-05-02T14:43:53.216Z,99605.80
2019-05-02T14:46:29.047Z,99590.58
2019-05-02T14:48:55.303Z,99590.63
2019-05-02T14:51:27.705Z,99592.77
2019-05-02T14:53:57.364Z,99588.69
2019-05-02T14:56:32.870Z,99603.55
2019-05-02T14:59:02.652Z,99594.99
2019-05-02T15:01:32.168Z,99596.56
2019-05-02T15:04:06.429Z,99591.25
2019-05-02T15:06:33.700Z,99590.55
2019-05-02T15:09:03.105Z,99589.22
2019-05-02T15:11:34.806Z,99593.36
2019-05-02T15:14:03.164Z,99587.97
2019-05-02T15:16:40.481Z,99589.39
2019-05-02T15:19:03.007Z,99588.78
2019-05-02T15:21:46.919Z,99586.45
2019-05-02T15:24:14.996Z,99587.16
2019-05-02T15:26:44.772Z,99585.22
2019-05-02T15:29:19.679Z,99569.92
2019-05-02T15:31:52.463Z,99568.20
2019-05-02T15:34:27.372Z,99567.58
2019-05-02T15:36:56.437Z,99570.34
2019-05-02T15:41:56.090Z,99573.87
2019-05-02T15:44:27.044Z,99567.72
2019-05-02T15:46:58.440Z,99561.50
2019-05-02T15:49:26.450Z,99563.30
2019-05-02T15:51:55.409Z,99562.97
2019-05-02T15:54:24.261Z,99565.70
2019-05-02T15:57:01.099Z,99565.84
2019-05-02T15:59:32.593Z,99573.38
2019-05-02T16:02:06.696Z,99559.77
2019-05-02T16:04:37.051Z,99556.72
2019-05-02T16:07:08.441Z,99561.73
2019-05-02T16:09:37.083Z,99556.73
2019-05-02T16:12:06.263Z,99555.48
2019-05-02T16:14:36.149Z,99559.49
2019-05-02T16:17:05.450Z,99550.73
2019-05-02T16:19:38.690Z,99550.33
2019-05-02T16:22:18.239Z,99546.34
2019-05-02T16:24:48.986Z,99541.56
2019-05-02T16:27:23.774Z,99541.88
2019-05-02T16:29:48.688Z,99543.45
2019-05-02T16:32:35.939Z,99534.82
2019-05-02T16:35:15.306Z,99537.74
2019-05-02T16:37:38.858Z,99532.22
2019-05-02T16:40:09.561Z,99533.94
2019-05-02T16:42:41.780Z,99539.64
2019-05-02T16:45:11.792Z,99534.06
2019-05-02T16:47:42.284Z,99529.41
2019-05-02T16:50:18.602Z,99527.38
2019-05-02T16:52:49.601Z,99527.27
2019-05-02T16:55:26.348Z,99533.66
2019-05-02T16:57:56.645Z,99536.23
2019-05-02T17:00:28.002Z,99541.13
2019-05-02T17:02:57.829Z,99546.63
2019-05-02T17:05:28.982Z,99540.98
2019-05-02T17:08:20.013Z,99543.72
2019-05-02T17:10:56.752Z,99537.70
2019-05-02T17:13:27.597Z,99537.15
2019-05-02T17:15:55.609Z,99538.34
2019-05-02T17:18:27.747Z,99545.44
2019-05-02T17:20:59.384Z,99549.56
2019-05-02T17:23:30.624Z,99548.23
2019-05-02T17:26:01.645Z,99542.54
2019-05-02T17:28:33.347Z,99554.49
2019-05-02T17:31:10.085Z,99555.02
2019-05-02T17:33:41.710Z,99550.95
2019-05-02T17:36:23.637Z,99553.95
2019-05-02T17:38:51.919Z,99553.95
2019-05-02T17:41:23.162Z,99555.83
2019-05-02T17:43:52.773Z,99559.36
2019-05-02T17:46:25.707Z,99566.14
2019-05-02T17:48:54.257Z,99562.59
2019-05-02T17:51:42.503Z,99564.23
2019-05-02T17:54:17.470Z,99557.16
2019-05-02T17:56:47.123Z,99557.98
2019-05-02T17:59:20.865Z,99563.90
2019-05-02T18:01:52.357Z,99561.47
2019-05-02T18:04:22.001Z,99561.98
2019-05-02T18:06:55.016Z,99561.95
2019-05-02T18:09:26.389Z,99565.72
2019-05-02T18:11:54.231Z,99572.47
2019-05-02T18:14:24.065Z,99571.94
2019-05-02T18:16:55.621Z,99577.33
2019-05-02T18:19:27.502Z,99580.88
2019-05-02T18:21:58.223Z,99586.52
2019-05-02T18:24:30.411Z,99583.47
2019-05-02T18:27:02.176Z,99592.69
2019-05-02T18:29:36.269Z,99586.72
2019-05-02T18:32:02.771Z,99583.94
2019-05-02T18:34:31.965Z,99551.80
2019-05-02T18:37:03.157Z,99590.37
2019-05-02T18:39:34.732Z,99578.45
2019-05-02T18:42:03.205Z,99596.33
2019-05-02T18:44:32.670Z,99594.66
2019-05-02T18:47:02.451Z,99598.48
2019-05-02T18:49:32.219Z,99594.89
2019-05-02T18:52:01.852Z,99600.80
2019-05-02T18:54:31.286Z,99611.59
2019-05-02T18:57:02.486Z,99610.50
2019-05-02T18:59:32.066Z,99616.77
2019-05-02T19:02:02.916Z,99632.47
2019-05-02T19:04:38.208Z,99638.08
2019-05-02T19:07:07.509Z,99642.58
2019-05-02T19:09:35.070Z,99650.18
2019-05-02T19:12:06.650Z,99671.59
2019-05-02T19:14:35.767Z,99672.52
2019-05-02T19:17:07.318Z,99667.98
2019-05-02T19:19:36.938Z,99673.08
2019-05-02T19:22:07.506Z,99685.01
2019-05-02T19:24:37.579Z,99687.07
2019-05-02T19:27:08.693Z,99689.42
2019-05-02T19:29:38.048Z,99694.05
2019-05-02T19:32:12.062Z,99694.27
2019-05-02T19:34:41.729Z,99697.98
2019-05-02T19:37:12.178Z,99703.80
2019-05-02T19:39:47.234Z,99716.66
2019-05-02T19:42:17.065Z,99708.41
2019-05-02T19:44:45.823Z,99715.23
2019-05-02T19:47:17.497Z,99712.75
2019-05-02T19:49:47.214Z,99712.13
2019-05-02T19:52:19.221Z,99713.23
2019-05-02T19:54:51.871Z,99715.48
2019-05-02T19:57:24.873Z,99716.95
2019-05-02T19:59:57.182Z,99712.59
2019-05-02T20:02:25.346Z,99715.52
2019-05-02T20:04:55.000Z,99718.34
2019-05-02T20:07:24.581Z,99720.05
2019-05-02T20:09:53.947Z,99712.73
2019-05-02T20:12:23.498Z,99714.13
2019-05-02T20:14:55.771Z,99715.47
2019-05-02T20:17:25.207Z,99717.23
2019-05-02T20:19:57.850Z,99716.11
2019-05-02T20:22:28.175Z,99717.51
2019-05-02T20:25:01.247Z,99720.39
2019-05-02T20:27:32.772Z,99725.41
2019-05-02T20:30:03.190Z,99725.13
2019-05-02T20:32:32.787Z,99729.38
2019-05-02T20:35:22.769Z,99723.86
2019-05-02T20:37:52.643Z,99729.38
2019-05-02T20:40:31.877Z,99724.18
2019-05-02T20:43:04.513Z,99727.45
2019-05-02T20:45:34.193Z,99725.68
2019-05-02T20:48:03.534Z,99739.14
2019-05-02T20:50:32.989Z,99739.00
2019-05-02T20:53:02.792Z,99747.47
2019-05-02T20:55:36.168Z,99743.38
2019-05-02T20:58:06.083Z,99748.33
2019-05-02T21:00:35.892Z,99743.13
2019-05-02T21:03:05.574Z,99743.13
2019-05-02T21:05:42.809Z,99741.99
2019-05-02T21:08:37.008Z,99757.02
2019-05-02T21:11:06.900Z,99734.34
2019-05-02T21:13:36.022Z,99734.34
2019-05-02T21:16:07.072Z,99738.09
2019-05-02T21:18:36.602Z,99737.48
2019-05-02T21:21:08.402Z,99743.17
2019-05-02T21:23:44.732Z,99740.55
2019-05-02T21:26:09.374Z,99745.19
2019-05-02T21:28:38.687Z,99745.77
2019-05-02T21:31:07.861Z,99752.84
2019-05-02T21:33:42.730Z,99750.48
2019-05-02T21:36:12.233Z,99754.42
2019-05-02T21:38:42.751Z,99750.63
2019-05-02T21:41:15.832Z,99757.97
2019-05-02T21:43:45.429Z,99756.92
2019-05-02T21:46:14.548Z,99763.17
2019-05-02T21:48:43.829Z,99763.55
2019-05-02T21:51:32.289Z,99757.64
2019-05-02T21:54:22.548Z,99763.34
2019-05-02T21:56:55.441Z,99763.78
2019-05-02T21:59:24.569Z,99763.70
2019-05-02T22:01:55.180Z,99760.66
2019-05-02T22:04:24.104Z,99764.84
2019-05-02T22:06:53.267Z,99764.69
2019-05-02T22:09:23.052Z,99769.45
2019-05-02T22:11:52.346Z,99770.66
2019-05-02T22:14:22.297Z,99725.09
2019-05-02T22:16:52.984Z,99761.59
2019-05-02T22:19:22.256Z,99769.66
2019-05-02T22:21:52.431Z,99772.72
2019-05-02T22:24:21.645Z,99771.95
2019-05-02T22:26:52.442Z,99775.41
2019-05-02T22:29:21.839Z,99782.14
2019-05-02T22:31:54.201Z,99783.78
2019-05-02T22:34:33.449Z,99784.77
2019-05-02T22:37:03.596Z,99782.61
2019-05-02T22:39:44.173Z,99787.28
2019-05-02T22:42:13.157Z,99796.70
2019-05-02T22:44:51.913Z,99783.28
2019-05-02T22:47:22.754Z,99784.02
2019-05-02T22:49:51.944Z,99782.44
2019-05-02T22:52:21.782Z,99785.13
2019-05-02T22:54:52.479Z,99782.91
2019-05-02T22:57:22.595Z,99792.17
2019-05-02T22:59:51.753Z,99793.08
2019-05-02T23:02:21.973Z,99793.22
2019-05-02T23:04:52.683Z,99797.61
2019-05-02T23:07:22.278Z,99801.88
2019-05-02T23:09:52.645Z,99801.11
2019-05-02T23:12:22.525Z,99802.40
2019-05-02T23:14:52.789Z,99799.33
2019-05-02T23:17:23.171Z,99796.20
2019-05-02T23:19:52.838Z,99812.13
2019-05-02T23:22:21.951Z,99803.37
2019-05-02T23:25:09.057Z,99806.75
2019-05-02T23:27:45.295Z,99798.73
2019-05-02T23:30:16.995Z,99798.73
2019-05-02T23:32:46.430Z,99806.38
2019-05-02T23:35:15.710Z,99807.19
2019-05-02T23:37:44.756Z,99811.75
2019-05-02T23:40:15.062Z,99806.45
2019-05-02T23:42:44.171Z,99808.38
2019-05-02T23:45:13.310Z,99813.55
2019-05-02T23:47:42.351Z,99817.41
2019-05-02T23:50:12.177Z,99801.22
2019-05-02T23:52:41.277Z,99808.02
2019-05-02T23:55:12.177Z,99811.91
2019-05-02T23:57:42.041Z,99803.23
